الصفحة الرئيسية
METAR-TAF:

METAR-TAF

مطار :

سان خوسيه, كوستاريكا

دائرة عرض: 09-57N, خط طول: 084-09W, ارتفاع: 994 متر

مراقبة الطقس الحالي

تاريخ ووقت الإصدار 4ساعات و 53 دقيقة قبل الساعة 00:00UTC
ريح 16 عقدة من الشرق
درجة الحرارة 22°درجة مئوية
الرطوبة 69%
ضغط 1017 hPa
الرؤية 10 كم أو أكثر
غيوم قليلة على ارتفاع 4000 قدم

METAR: MRPV 290000Z 08016KT 9999 FEW040 22/16 A3003 NOSIG

زمن: 22:53 (04:53 UTC)

توقعات

تاريخ ووقت الإصدار 5ساعات و 53 دقيقة قبل الساعة 23:00UTC
التوقعات صالحة من29 الساعة 00 UTC إلى 29 الساعة 24 UTC
ريح 15 عقدة من الشرق
الرؤية 10 كم أو أكثر
غيوم قليلة على ارتفاع 4000 قدم
مؤقت
من 29 الساعة 15 UTC إلى 29 الساعة 20 UTC
ريح 20 عقدة من الشرق تتزايد حتى 30 عقدة

TAF: MRPV 282300Z 2900/2924 08015KT 9999 FEW040 TX27/2918Z TN18/2910Z TEMPO 2915/2920 10020G30KT

أرصاد الطقس والتوقعات من أكثر من 4000 مطار (تقارير الطقس للمطار METAR والتنبؤ بالطقس بالمطارTAF).

المحطات المتاحة هي النقط الصفراء والحمراء على الخريطة.

حرك المؤشر فوق النقطة لمعرفة اسم المحطة.

ثم انقر لمعرفة أرصاد وتوقعات الطقس.

لتغيير الخارطة: اضغط على الأزرار الخضراء مع رمز الصليب الأسود للتكبير. على الزر الأخضر مع شرطة للتصغير، أو على الأسهم الخضراء للخرائط المجاورة.


METAR-TAF: